sensor_id;sensor_type;location;lat;lon;timestamp;P1;durP1;ratioP1;P2;durP2;ratioP2
3613;SDS011;1821;50.936;6.854;2023-03-01T00:00:05;9.47;;;7.67;;
3613;SDS011;1821;50.936;6.854;2023-03-01T00:00:48;11.10;;;7.95;;
3613;SDS011;1821;50.936;6.854;2023-03-01T00:01:30;10.50;;;7.85;;
3613;SDS011;1821;50.936;6.854;2023-03-01T00:02:12;11.05;;;8.27;;
3613;SDS011;1821;50.936;6.854;2023-03-01T00:02:54;10.45;;;8.07;;
3613;SDS011;1821;50.936;6.854;2023-03-01T00:03:36;10.57;;;8.23;;
3613;SDS011;1821;50.936;6.854;2023-03-01T00:04:19;10.88;;;8.60;;
3613;SDS011;1821;50.936;6.854;2023-03-01T00:05:00;10.40;;;7.88;;
3613;SDS011;1821;50.936;6.854;2023-03-01T00:05:45;10.55;;;8.63;;
3613;SDS011;1821;50.936;6.854;2023-03-01T00:06:28;10.38;;;7.90;;
3613;SDS011;1821;50.936;6.854;2023-03-01T00:07:10;10.30;;;7.97;;
3613;SDS011;1821;50.936;6.854;2023-03-01T00:07:53;10.02;;;8.35;;
3613;SDS011;1821;50.936;6.854;2023-03-01T00:08:35;8.70;;;7.72;;
3613;SDS011;1821;50.936;6.854;2023-03-01T00:09:17;9.52;;;8.02;;
3613;SDS011;1821;50.936;6.854;2023-03-01T00:09:59;13.20;;;8.40;;
3613;SDS011;1821;50.936;6.854;2023-03-01T00:10:40;10.50;;;7.93;;
3613;SDS011;1821;50.936;6.854;2023-03-01T00:11:24;9.80;;;7.80;;
3613;SDS011;1821;50.936;6.854;2023-03-01T00:12:08;13.35;;;8.50;;
3613;SDS011;1821;50.936;6.854;2023-03-01T00:12:52;10.40;;;8.23;;
3613;SDS011;1821;50.936;6.854;2023-03-01T00:13:35;9.50;;;7.95;;
3613;SDS011;1821;50.936;6.854;2023-03-01T00:14:17;9.75;;;8.23;;
3613;SDS011;1821;50.936;6.854;2023-03-01T00:14:59;11.45;;;8.60;;
3613;SDS011;1821;50.936;6.854;2023-03-01T00:15:41;9.23;;;8.32;;
3613;SDS011;1821;50.936;6.854;2023-03-01T00:16:24;9.73;;;7.97;;
3613;SDS011;1821;50.936;6.854;2023-03-01T00:17:07;10.50;;;7.60;;
3613;SDS011;1821;50.936;6.854;2023-03-01T00:17:49;9.70;;;7.70;;
3613;SDS011;1821;50.936;6.854;2023-03-01T00:18:34;11.30;;;7.97;;
3613;SDS011;1821;50.936;6.854;2023-03-01T00:19:16;10.23;;;8.05;;
3613;SDS011;1821;50.936;6.854;2023-03-01T00:20:02;10.52;;;7.97;;
3613;SDS011;1821;50.936;6.854;2023-03-01T00:20:51;10.82;;;7.97;;
3613;SDS011;1821;50.936;6.854;2023-03-01T00:21:34;12.15;;;8.30;;
3613;SDS011;1821;50.936;6.854;2023-03-01T00:22:16;13.70;;;8.05;;
3613;SDS011;1821;50.936;6.854;2023-03-01T00:22:58;11.40;;;7.97;;
3613;SDS011;1821;50.936;6.854;2023-03-01T00:23:40;10.48;;;7.95;;
3613;SDS011;1821;50.936;6.854;2023-03-01T00:24:22;8.80;;;7.70;;
3613;SDS011;1821;50.936;6.854;2023-03-01T00:25:04;12.70;;;7.68;;
3613;SDS011;1821;50.936;6.854;2023-03-01T00:25:46;13.25;;;7.57;;
3613;SDS011;1821;50.936;6.854;2023-03-01T00:26:28;10.35;;;7.45;;
3613;SDS011;1821;50.936;6.854;2023-03-01T00:27:11;9.70;;;7.85;;
3613;SDS011;1821;50.936;6.854;2023-03-01T00:27:52;10.70;;;8.77;;
3613;SDS011;1821;50.936;6.854;2023-03-01T00:28:36;10.35;;;7.82;;
3613;SDS011;1821;50.936;6.854;2023-03-01T00:29:18;12.13;;;7.50;;
3613;SDS011;1821;50.936;6.854;2023-03-01T00:30:00;10.50;;;7.60;;
3613;SDS011;1821;50.936;6.854;2023-03-01T00:30:42;12.88;;;7.63;;
3613;SDS011;1821;50.936;6.854;2023-03-01T00:31:25;9.93;;;7.57;;
3613;SDS011;1821;50.936;6.854;2023-03-01T00:32:10;9.95;;;7.97;;
3613;SDS011;1821;50.936;6.854;2023-03-01T00:32:52;9.48;;;7.82;;
3613;SDS011;1821;50.936;6.854;2023-03-01T00:33:33;9.13;;;7.35;;
3613;SDS011;1821;50.936;6.854;2023-03-01T00:34:15;8.35;;;7.20;;
3613;SDS011;1821;50.936;6.854;2023-03-01T00:34:57;9.27;;;7.90;;
3613;SDS011;1821;50.936;6.854;2023-03-01T00:35:42;12.65;;;8.45;;
3613;SDS011;1821;50.936;6.854;2023-03-01T00:36:25;11.82;;;7.78;;
3613;SDS011;1821;50.936;6.854;2023-03-01T00:37:11;9.93;;;8.30;;
3613;SDS011;1821;50.936;6.854;2023-03-01T00:37:53;11.82;;;7.70;;
3613;SDS011;1821;50.936;6.854;2023-03-01T00:38:39;10.52;;;8.65;;
3613;SDS011;1821;50.936;6.854;2023-03-01T00:39:23;11.57;;;8.40;;
3613;SDS011;1821;50.936;6.854;2023-03-01T00:40:05;11.48;;;8.20;;
3613;SDS011;1821;50.936;6.854;2023-03-01T00:40:47;10.82;;;7.88;;
3613;SDS011;1821;50.936;6.854;2023-03-01T00:41:30;13.45;;;8.30;;
3613;SDS011;1821;50.936;6.854;2023-03-01T00:42:12;10.82;;;8.00;;
3613;SDS011;1821;50.936;6.854;2023-03-01T00:42:54;9.82;;;7.80;;
3613;SDS011;1821;50.936;6.854;2023-03-01T00:43:39;8.38;;;7.30;;
3613;SDS011;1821;50.936;6.854;2023-03-01T00:44:21;10.25;;;7.70;;
3613;SDS011;1821;50.936;6.854;2023-03-01T00:45:03;9.80;;;7.95;;
3613;SDS011;1821;50.936;6.854;2023-03-01T00:45:45;10.15;;;8.30;;
3613;SDS011;1821;50.936;6.854;2023-03-01T00:46:27;10.77;;;8.00;;
3613;SDS011;1821;50.936;6.854;2023-03-01T00:47:11;10.93;;;8.00;;
3613;SDS011;1821;50.936;6.854;2023-03-01T00:47:53;8.75;;;7.57;;
3613;SDS011;1821;50.936;6.854;2023-03-01T00:48:35;9.65;;;8.57;;
3613;SDS011;1821;50.936;6.854;2023-03-01T00:49:18;10.13;;;8.65;;
3613;SDS011;1821;50.936;6.854;2023-03-01T00:50:02;8.50;;;7.60;;
3613;SDS011;1821;50.936;6.854;2023-03-01T00:50:47;9.10;;;7.05;;
3613;SDS011;1821;50.936;6.854;2023-03-01T00:51:29;11.52;;;7.60;;
3613;SDS011;1821;50.936;6.854;2023-03-01T00:52:11;9.30;;;7.53;;
3613;SDS011;1821;50.936;6.854;2023-03-01T00:52:54;9.07;;;7.57;;
3613;SDS011;1821;50.936;6.854;2023-03-01T00:53:37;11.45;;;7.70;;
3613;SDS011;1821;50.936;6.854;2023-03-01T00:54:19;9.95;;;7.72;;
3613;SDS011;1821;50.936;6.854;2023-03-01T00:55:01;11.13;;;7.40;;
3613;SDS011;1821;50.936;6.854;2023-03-01T00:55:43;9.80;;;7.60;;
3613;SDS011;1821;50.936;6.854;2023-03-01T00:56:25;11.82;;;8.13;;
3613;SDS011;1821;50.936;6.854;2023-03-01T00:57:10;10.43;;;7.63;;
3613;SDS011;1821;50.936;6.854;2023-03-01T00:57:52;10.75;;;7.45;;
3613;SDS011;1821;50.936;6.854;2023-03-01T00:58:34;12.10;;;8.27;;
3613;SDS011;1821;50.936;6.854;2023-03-01T00:59:17;11.13;;;8.55;;
3613;SDS011;1821;50.936;6.854;2023-03-01T00:59:59;10.60;;;8.00;;
3613;SDS011;1821;50.936;6.854;2023-03-01T01:00:41;9.10;;;7.68;;
3613;SDS011;1821;50.936;6.854;2023-03-01T01:01:24;8.50;;;7.05;;
3613;SDS011;1821;50.936;6.854;2023-03-01T01:02:08;10.82;;;8.52;;
3613;SDS011;1821;50.936;6.854;2023-03-01T01:02:50;11.07;;;8.25;;
3613;SDS011;1821;50.936;6.854;2023-03-01T01:03:32;10.30;;;8.18;;
3613;SDS011;1821;50.936;6.854;2023-03-01T01:04:14;10.63;;;8.00;;
3613;SDS011;1821;50.936;6.854;2023-03-01T01:04:56;13.60;;;8.45;;
3613;SDS011;1821;50.936;6.854;2023-03-01T01:05:38;13.10;;;8.60;;
3613;SDS011;1821;50.936;6.854;2023-03-01T01:06:24;11.00;;;7.80;;
3613;SDS011;1821;50.936;6.854;2023-03-01T01:07:12;10.57;;;7.70;;
3613;SDS011;1821;50.936;6.854;2023-03-01T01:07:57;10.02;;;7.70;;
3613;SDS011;1821;50.936;6.854;2023-03-01T01:08:39;10.50;;;8.68;;
3613;SDS011;1821;50.936;6.854;2023-03-01T01:09:22;12.48;;;8.35;;
3613;SDS011;1821;50.936;6.854;2023-03-01T01:10:05;12.57;;;8.25;;
3613;SDS011;1821;50.936;6.854;2023-03-01T01:10:50;11.98;;;8.10;;
3613;SDS011;1821;50.936;6.854;2023-03-01T01:11:32;11.88;;;8.15;;
3613;SDS011;1821;50.936;6.854;2023-03-01T01:12:14;11.23;;;8.10;;
3613;SDS011;1821;50.936;6.854;2023-03-01T01:12:56;10.32;;;8.02;;
3613;SDS011;1821;50.936;6.854;2023-03-01T01:13:39;11.77;;;8.10;;
3613;SDS011;1821;50.936;6.854;2023-03-01T01:14:24;9.35;;;8.10;;
3613;SDS011;1821;50.936;6.854;2023-03-01T01:15:06;10.73;;;8.23;;
3613;SDS011;1821;50.936;6.854;2023-03-01T01:15:48;11.50;;;9.20;;
3613;SDS011;1821;50.936;6.854;2023-03-01T01:16:30;11.00;;;9.25;;
3613;SDS011;1821;50.936;6.854;2023-03-01T01:17:13;10.77;;;8.45;;
3613;SDS011;1821;50.936;6.854;2023-03-01T01:17:57;10.40;;;8.75;;
3613;SDS011;1821;50.936;6.854;2023-03-01T01:18:39;10.52;;;8.68;;
3613;SDS011;1821;50.936;6.854;2023-03-01T01:19:21;12.05;;;8.88;;
3613;SDS011;1821;50.936;6.854;2023-03-01T01:20:04;10.20;;;8.10;;
3613;SDS011;1821;50.936;6.854;2023-03-01T01:20:47;10.00;;;8.38;;
3613;SDS011;1821;50.936;6.854;2023-03-01T01:21:29;10.60;;;8.23;;
3613;SDS011;1821;50.936;6.854;2023-03-01T01:22:13;9.75;;;8.13;;
3613;SDS011;1821;50.936;6.854;2023-03-01T01:22:57;9.93;;;8.05;;
3613;SDS011;1821;50.936;6.854;2023-03-01T01:23:39;10.30;;;8.40;;
3613;SDS011;1821;50.936;6.854;2023-03-01T01:24:22;9.95;;;8.30;;
3613;SDS011;1821;50.936;6.854;2023-03-01T01:25:04;10.60;;;8.32;;
3613;SDS011;1821;50.936;6.854;2023-03-01T01:25:46;11.23;;;8.43;;
3613;SDS011;1821;50.936;6.854;2023-03-01T01:26:29;11.57;;;9.10;;
3613;SDS011;1821;50.936;6.854;2023-03-01T01:27:13;11.98;;;8.20;;
3613;SDS011;1821;50.936;6.854;2023-03-01T01:27:57;11.63;;;8.00;;
3613;SDS011;1821;50.936;6.854;2023-03-01T01:28:39;10.57;;;8.25;;
3613;SDS011;1821;50.936;6.854;2023-03-01T01:29:21;12.20;;;8.88;;
3613;SDS011;1821;50.936;6.854;2023-03-01T01:30:03;11.23;;;8.43;;
3613;SDS011;1821;50.936;6.854;2023-03-01T01:30:46;10.48;;;8.20;;
3613;SDS011;1821;50.936;6.854;2023-03-01T01:31:28;12.60;;;9.05;;
3613;SDS011;1821;50.936;6.854;2023-03-01T01:32:11;10.80;;;9.48;;
3613;SDS011;1821;50.936;6.854;2023-03-01T01:32:53;11.20;;;9.13;;
3613;SDS011;1821;50.936;6.854;2023-03-01T01:33:36;13.05;;;9.48;;
3613;SDS011;1821;50.936;6.854;2023-03-01T01:34:19;10.85;;;8.48;;
3613;SDS011;1821;50.936;6.854;2023-03-01T01:35:02;10.60;;;8.52;;
3613;SDS011;1821;50.936;6.854;2023-03-01T01:35:45;11.00;;;9.07;;
3613;SDS011;1821;50.936;6.854;2023-03-01T01:36:27;13.90;;;8.90;;
3613;SDS011;1821;50.936;6.854;2023-03-01T01:37:13;12.02;;;8.95;;
3613;SDS011;1821;50.936;6.854;2023-03-01T01:37:58;12.30;;;8.40;;
3613;SDS011;1821;50.936;6.854;2023-03-01T01:38:40;11.52;;;8.52;;
3613;SDS011;1821;50.936;6.854;2023-03-01T01:39:23;10.77;;;8.70;;
3613;SDS011;1821;50.936;6.854;2023-03-01T01:40:08;10.75;;;9.50;;
3613;SDS011;1821;50.936;6.854;2023-03-01T01:40:51;10.55;;;9.10;;
3613;SDS011;1821;50.936;6.854;2023-03-01T01:41:33;10.68;;;8.70;;
3613;SDS011;1821;50.936;6.854;2023-03-01T01:42:15;10.63;;;8.60;;
3613;SDS011;1821;50.936;6.854;2023-03-01T01:42:59;10.85;;;8.73;;
3613;SDS011;1821;50.936;6.854;2023-03-01T01:43:45;14.13;;;9.02;;
3613;SDS011;1821;50.936;6.854;2023-03-01T01:44:29;12.73;;;8.63;;
3613;SDS011;1821;50.936;6.854;2023-03-01T01:45:28;11.70;;;8.88;;
3613;SDS011;1821;50.936;6.854;2023-03-01T01:47:12;10.60;;;8.98;;
3613;SDS011;1821;50.936;6.854;2023-03-01T01:48:00;10.60;;;8.63;;
3613;SDS011;1821;50.936;6.854;2023-03-01T01:48:56;10.80;;;8.90;;
3613;SDS011;1821;50.936;6.854;2023-03-01T01:49:51;11.95;;;8.75;;
3613;SDS011;1821;50.936;6.854;2023-03-01T01:50:39;11.98;;;9.68;;
3613;SDS011;1821;50.936;6.854;2023-03-01T01:51:24;14.63;;;9.27;;
3613;SDS011;1821;50.936;6.854;2023-03-01T01:52:45;14.85;;;8.85;;
3613;SDS011;1821;50.936;6.854;2023-03-01T01:53:20;12.32;;;9.10;;
3613;SDS011;1821;50.936;6.854;2023-03-01T01:54:02;11.93;;;9.10;;
3613;SDS011;1821;50.936;6.854;2023-03-01T01:55:26;12.02;;;8.38;;
3613;SDS011;1821;50.936;6.854;2023-03-01T01:56:08;10.80;;;8.93;;
3613;SDS011;1821;50.936;6.854;2023-03-01T01:56:55;11.43;;;8.57;;
3613;SDS011;1821;50.936;6.854;2023-03-01T01:57:44;10.45;;;8.18;;
3613;SDS011;1821;50.936;6.854;2023-03-01T01:58:30;12.50;;;9.00;;
3613;SDS011;1821;50.936;6.854;2023-03-01T01:59:12;13.93;;;9.40;;
3613;SDS011;1821;50.936;6.854;2023-03-01T01:59:57;10.68;;;8.77;;
3613;SDS011;1821;50.936;6.854;2023-03-01T02:00:45;10.68;;;8.98;;
3613;SDS011;1821;50.936;6.854;2023-03-01T02:01:28;10.95;;;8.68;;
3613;SDS011;1821;50.936;6.854;2023-03-01T02:02:13;11.20;;;8.43;;
3613;SDS011;1821;50.936;6.854;2023-03-01T02:03:11;11.35;;;8.73;;
3613;SDS011;1821;50.936;6.854;2023-03-01T02:03:59;11.50;;;9.18;;
3613;SDS011;1821;50.936;6.854;2023-03-01T02:04:41;12.43;;;9.55;;
3613;SDS011;1821;50.936;6.854;2023-03-01T02:05:25;12.98;;;8.85;;
3613;SDS011;1821;50.936;6.854;2023-03-01T02:06:39;10.95;;;8.75;;
3613;SDS011;1821;50.936;6.854;2023-03-01T02:07:31;12.10;;;9.07;;
3613;SDS011;1821;50.936;6.854;2023-03-01T02:08:14;12.52;;;9.60;;
3613;SDS011;1821;50.936;6.854;2023-03-01T02:08:59;12.43;;;9.63;;
3613;SDS011;1821;50.936;6.854;2023-03-01T02:09:46;11.80;;;8.38;;
3613;SDS011;1821;50.936;6.854;2023-03-01T02:10:29;11.65;;;8.70;;
3613;SDS011;1821;50.936;6.854;2023-03-01T02:11:17;11.98;;;8.85;;
3613;SDS011;1821;50.936;6.854;2023-03-01T02:11:59;12.48;;;8.82;;
3613;SDS011;1821;50.936;6.854;2023-03-01T02:12:42;9.68;;;8.25;;
3613;SDS011;1821;50.936;6.854;2023-03-01T02:13:24;9.63;;;8.63;;
3613;SDS011;1821;50.936;6.854;2023-03-01T02:14:06;10.82;;;9.05;;
3613;SDS011;1821;50.936;6.854;2023-03-01T02:14:48;11.20;;;8.82;;
3613;SDS011;1821;50.936;6.854;2023-03-01T02:15:33;10.57;;;8.88;;
3613;SDS011;1821;50.936;6.854;2023-03-01T02:16:18;10.27;;;8.70;;
3613;SDS011;1821;50.936;6.854;2023-03-01T02:17:01;9.90;;;7.70;;
3613;SDS011;1821;50.936;6.854;2023-03-01T02:17:43;10.23;;;8.40;;
3613;SDS011;1821;50.936;6.854;2023-03-01T02:18:25;11.75;;;8.65;;
3613;SDS011;1821;50.936;6.854;2023-03-01T02:19:08;12.30;;;8.82;;
3613;SDS011;1821;50.936;6.854;2023-03-01T02:21:42;10.25;;;8.30;;
3613;SDS011;1821;50.936;6.854;2023-03-01T02:22:28;11.90;;;9.68;;
3613;SDS011;1821;50.936;6.854;2023-03-01T02:23:11;13.55;;;9.68;;
3613;SDS011;1821;50.936;6.854;2023-03-01T02:23:54;13.32;;;8.85;;
3613;SDS011;1821;50.936;6.854;2023-03-01T02:24:48;11.10;;;8.70;;
3613;SDS011;1821;50.936;6.854;2023-03-01T02:26:01;14.93;;;9.07;;
3613;SDS011;1821;50.936;6.854;2023-03-01T02:26:56;11.15;;;9.00;;
3613;SDS011;1821;50.936;6.854;2023-03-01T02:28:32;11.50;;;9.32;;
3613;SDS011;1821;50.936;6.854;2023-03-01T02:29:19;10.57;;;8.75;;
3613;SDS011;1821;50.936;6.854;2023-03-01T02:30:02;11.45;;;8.88;;
3613;SDS011;1821;50.936;6.854;2023-03-01T02:30:45;10.40;;;8.80;;
3613;SDS011;1821;50.936;6.854;2023-03-01T02:31:47;12.35;;;8.65;;
3613;SDS011;1821;50.936;6.854;2023-03-01T02:32:33;12.15;;;9.00;;
3613;SDS011;1821;50.936;6.854;2023-03-01T02:33:16;11.02;;;8.50;;
3613;SDS011;1821;50.936;6.854;2023-03-01T02:33:58;10.63;;;8.57;;
3613;SDS011;1821;50.936;6.854;2023-03-01T02:34:41;10.93;;;9.00;;
3613;SDS011;1821;50.936;6.854;2023-03-01T02:35:24;10.95;;;8.48;;
3613;SDS011;1821;50.936;6.854;2023-03-01T02:36:08;10.70;;;9.00;;
3613;SDS011;1821;50.936;6.854;2023-03-01T02:37:00;12.35;;;8.90;;
3613;SDS011;1821;50.936;6.854;2023-03-01T02:37:48;11.23;;;9.00;;
3613;SDS011;1821;50.936;6.854;2023-03-01T02:38:30;12.43;;;9.05;;
3613;SDS011;1821;50.936;6.854;2023-03-01T02:39:30;12.68;;;9.55;;
3613;SDS011;1821;50.936;6.854;2023-03-01T02:40:16;12.95;;;9.43;;
3613;SDS011;1821;50.936;6.854;2023-03-01T02:40:59;11.60;;;9.40;;
3613;SDS011;1821;50.936;6.854;2023-03-01T02:41:47;11.70;;;8.70;;
3613;SDS011;1821;50.936;6.854;2023-03-01T02:42:36;15.60;;;9.63;;
3613;SDS011;1821;50.936;6.854;2023-03-01T02:43:29;11.55;;;9.40;;
3613;SDS011;1821;50.936;6.854;2023-03-01T02:44:13;11.90;;;8.98;;
3613;SDS011;1821;50.936;6.854;2023-03-01T02:44:55;10.50;;;9.13;;
3613;SDS011;1821;50.936;6.854;2023-03-01T02:45:43;9.85;;;8.63;;
3613;SDS011;1821;50.936;6.854;2023-03-01T02:46:32;13.25;;;9.20;;
3613;SDS011;1821;50.936;6.854;2023-03-01T02:47:14;11.13;;;9.15;;
3613;SDS011;1821;50.936;6.854;2023-03-01T02:47:59;10.65;;;9.38;;
3613;SDS011;1821;50.936;6.854;2023-03-01T02:48:50;10.73;;;9.63;;
3613;SDS011;1821;50.936;6.854;2023-03-01T02:49:35;11.75;;;8.75;;
3613;SDS011;1821;50.936;6.854;2023-03-01T02:51:17;12.82;;;9.90;;
3613;SDS011;1821;50.936;6.854;2023-03-01T02:52:56;10.98;;;8.82;;
3613;SDS011;1821;50.936;6.854;2023-03-01T02:53:33;12.75;;;9.20;;
3613;SDS011;1821;50.936;6.854;2023-03-01T02:54:24;11.70;;;9.43;;
3613;SDS011;1821;50.936;6.854;2023-03-01T02:55:13;14.23;;;9.48;;
3613;SDS011;1821;50.936;6.854;2023-03-01T02:55:57;11.73;;;9.35;;
3613;SDS011;1821;50.936;6.854;2023-03-01T02:56:40;11.63;;;9.25;;
3613;SDS011;1821;50.936;6.854;2023-03-01T02:57:24;12.38;;;9.20;;
3613;SDS011;1821;50.936;6.854;2023-03-01T02:58:08;11.98;;;9.65;;
3613;SDS011;1821;50.936;6.854;2023-03-01T02:58:51;11.35;;;9.18;;
3613;SDS011;1821;50.936;6.854;2023-03-01T02:59:34;10.95;;;9.10;;
3613;SDS011;1821;50.936;6.854;2023-03-01T03:00:21;12.07;;;9.20;;
3613;SDS011;1821;50.936;6.854;2023-03-01T03:01:07;11.60;;;9.48;;
3613;SDS011;1821;50.936;6.854;2023-03-01T03:01:50;14.07;;;9.30;;
3613;SDS011;1821;50.936;6.854;2023-03-01T03:02:32;11.95;;;9.65;;
3613;SDS011;1821;50.936;6.854;2023-03-01T03:03:20;13.00;;;10.23;;
3613;SDS011;1821;50.936;6.854;2023-03-01T03:04:04;13.82;;;10.13;;
3613;SDS011;1821;50.936;6.854;2023-03-01T03:04:53;12.68;;;10.15;;
3613;SDS011;1821;50.936;6.854;2023-03-01T03:05:34;11.70;;;9.90;;
3613;SDS011;1821;50.936;6.854;2023-03-01T03:06:16;13.60;;;9.25;;
3613;SDS011;1821;50.936;6.854;2023-03-01T03:06:58;13.52;;;9.00;;
3613;SDS011;1821;50.936;6.854;2023-03-01T03:07:41;14.90;;;10.02;;
3613;SDS011;1821;50.936;6.854;2023-03-01T03:08:24;15.40;;;10.40;;
3613;SDS011;1821;50.936;6.854;2023-03-01T03:09:06;11.43;;;8.75;;
3613;SDS011;1821;50.936;6.854;2023-03-01T03:09:49;11.32;;;9.02;;
3613;SDS011;1821;50.936;6.854;2023-03-01T03:10:34;12.50;;;10.07;;
3613;SDS011;1821;50.936;6.854;2023-03-01T03:11:19;13.43;;;10.20;;
3613;SDS011;1821;50.936;6.854;2023-03-01T03:12:01;11.45;;;9.68;;
3613;SDS011;1821;50.936;6.854;2023-03-01T03:12:43;12.00;;;9.25;;
3613;SDS011;1821;50.936;6.854;2023-03-01T03:13:29;11.10;;;9.60;;
3613;SDS011;1821;50.936;6.854;2023-03-01T03:14:12;11.73;;;9.55;;
3613;SDS011;1821;50.936;6.854;2023-03-01T03:14:58;11.80;;;9.85;;
3613;SDS011;1821;50.936;6.854;2023-03-01T03:15:40;11.48;;;9.25;;
3613;SDS011;1821;50.936;6.854;2023-03-01T03:16:22;12.32;;;9.25;;
3613;SDS011;1821;50.936;6.854;2023-03-01T03:17:04;11.95;;;9.38;;
3613;SDS011;1821;50.936;6.854;2023-03-01T03:17:47;12.35;;;9.38;;
3613;SDS011;1821;50.936;6.854;2023-03-01T03:18:32;11.25;;;8.90;;
3613;SDS011;1821;50.936;6.854;2023-03-01T03:19:14;12.35;;;9.57;;
3613;SDS011;1821;50.936;6.854;2023-03-01T03:20:00;11.68;;;9.60;;
3613;SDS011;1821;50.936;6.854;2023-03-01T03:20:42;11.48;;;9.55;;
3613;SDS011;1821;50.936;6.854;2023-03-01T03:21:25;10.68;;;9.57;;
3613;SDS011;1821;50.936;6.854;2023-03-01T03:22:08;10.60;;;9.43;;
3613;SDS011;1821;50.936;6.854;2023-03-01T03:22:53;12.73;;;9.43;;
3613;SDS011;1821;50.936;6.854;2023-03-01T03:23:37;11.93;;;9.13;;
3613;SDS011;1821;50.936;6.854;2023-03-01T03:24:19;10.90;;;9.40;;
3613;SDS011;1821;50.936;6.854;2023-03-01T03:25:02;10.73;;;9.40;;
3613;SDS011;1821;50.936;6.854;2023-03-01T03:25:44;10.77;;;9.25;;
3613;SDS011;1821;50.936;6.854;2023-03-01T03:26:28;14.80;;;10.05;;
3613;SDS011;1821;50.936;6.854;2023-03-01T03:27:11;15.15;;;9.82;;
3613;SDS011;1821;50.936;6.854;2023-03-01T03:27:52;13.23;;;9.20;;
3613;SDS011;1821;50.936;6.854;2023-03-01T03:28:39;12.02;;;9.20;;
3613;SDS011;1821;50.936;6.854;2023-03-01T03:29:21;12.40;;;9.40;;
3613;SDS011;1821;50.936;6.854;2023-03-01T03:30:04;10.35;;;9.15;;
3613;SDS011;1821;50.936;6.854;2023-03-01T03:30:50;10.85;;;9.27;;
3613;SDS011;1821;50.936;6.854;2023-03-01T03:31:32;10.20;;;8.55;;
3613;SDS011;1821;50.936;6.854;2023-03-01T03:32:14;11.95;;;9.35;;
3613;SDS011;1821;50.936;6.854;2023-03-01T03:32:56;10.93;;;9.30;;
3613;SDS011;1821;50.936;6.854;2023-03-01T03:33:39;10.30;;;9.20;;
3613;SDS011;1821;50.936;6.854;2023-03-01T03:34:22;12.45;;;9.50;;
3613;SDS011;1821;50.936;6.854;2023-03-01T03:35:04;11.60;;;9.60;;
3613;SDS011;1821;50.936;6.854;2023-03-01T03:35:50;14.15;;;10.13;;
3613;SDS011;1821;50.936;6.854;2023-03-01T03:36:33;12.90;;;9.95;;
3613;SDS011;1821;50.936;6.854;2023-03-01T03:37:14;11.02;;;9.40;;
3613;SDS011;1821;50.936;6.854;2023-03-01T03:38:16;10.02;;;8.63;;
3613;SDS011;1821;50.936;6.854;2023-03-01T03:38:59;11.20;;;9.60;;
3613;SDS011;1821;50.936;6.854;2023-03-01T03:39:42;12.60;;;9.45;;
3613;SDS011;1821;50.936;6.854;2023-03-01T03:40:25;11.95;;;9.60;;
3613;SDS011;1821;50.936;6.854;2023-03-01T03:41:10;13.10;;;9.60;;
3613;SDS011;1821;50.936;6.854;2023-03-01T03:41:52;14.52;;;9.50;;
3613;SDS011;1821;50.936;6.854;2023-03-01T03:42:35;10.57;;;8.57;;
3613;SDS011;1821;50.936;6.854;2023-03-01T03:43:19;11.45;;;9.02;;
3613;SDS011;1821;50.936;6.854;2023-03-01T03:44:02;14.02;;;10.30;;
3613;SDS011;1821;50.936;6.854;2023-03-01T03:44:44;14.13;;;9.73;;
3613;SDS011;1821;50.936;6.854;2023-03-01T03:45:26;11.48;;;9.68;;
3613;SDS011;1821;50.936;6.854;2023-03-01T03:46:09;13.70;;;9.00;;
3613;SDS011;1821;50.936;6.854;2023-03-01T03:46:52;12.00;;;9.48;;
3613;SDS011;1821;50.936;6.854;2023-03-01T03:47:34;11.15;;;9.10;;
3613;SDS011;1821;50.936;6.854;2023-03-01T03:48:16;10.20;;;8.80;;
3613;SDS011;1821;50.936;6.854;2023-03-01T03:48:58;13.32;;;10.05;;
3613;SDS011;1821;50.936;6.854;2023-03-01T03:49:42;12.10;;;9.90;;
3613;SDS011;1821;50.936;6.854;2023-03-01T03:50:24;13.52;;;10.15;;
3613;SDS011;1821;50.936;6.854;2023-03-01T03:51:06;13.35;;;9.35;;
3613;SDS011;1821;50.936;6.854;2023-03-01T03:51:51;11.55;;;9.00;;
3613;SDS011;1821;50.936;6.854;2023-03-01T03:52:33;13.55;;;10.20;;
3613;SDS011;1821;50.936;6.854;2023-03-01T03:53:15;14.57;;;10.05;;
3613;SDS011;1821;50.936;6.854;2023-03-01T03:53:57;11.77;;;9.98;;
3613;SDS011;1821;50.936;6.854;2023-03-01T03:54:40;11.63;;;10.05;;
3613;SDS011;1821;50.936;6.854;2023-03-01T03:55:22;11.30;;;9.50;;
3613;SDS011;1821;50.936;6.854;2023-03-01T03:56:09;11.90;;;10.27;;
3613;SDS011;1821;50.936;6.854;2023-03-01T03:56:54;12.60;;;10.07;;
3613;SDS011;1821;50.936;6.854;2023-03-01T03:57:40;11.57;;;9.95;;
3613;SDS011;1821;50.936;6.854;2023-03-01T03:58:25;14.95;;;10.40;;
3613;SDS011;1821;50.936;6.854;2023-03-01T03:59:10;16.13;;;10.00;;
3613;SDS011;1821;50.936;6.854;2023-03-01T03:59:52;14.38;;;9.88;;
3613;SDS011;1821;50.936;6.854;2023-03-01T04:00:35;13.75;;;10.45;;
3613;SDS011;1821;50.936;6.854;2023-03-01T04:01:24;13.05;;;9.95;;
3613;SDS011;1821;50.936;6.854;2023-03-01T04:02:06;10.30;;;8.80;;
3613;SDS011;1821;50.936;6.854;2023-03-01T04:02:50;12.13;;;9.77;;
3613;SDS011;1821;50.936;6.854;2023-03-01T04:03:33;12.52;;;9.90;;
3613;SDS011;1821;50.936;6.854;2023-03-01T04:04:18;12.65;;;10.10;;
3613;SDS011;1821;50.936;6.854;2023-03-01T04:05:00;11.95;;;10.30;;
3613;SDS011;1821;50.936;6.854;2023-03-01T04:05:44;13.30;;;10.57;;
3613;SDS011;1821;50.936;6.854;2023-03-01T04:06:28;11.88;;;10.25;;
3613;SDS011;1821;50.936;6.854;2023-03-01T04:07:10;11.32;;;9.70;;
3613;SDS011;1821;50.936;6.854;2023-03-01T04:07:52;12.05;;;10.00;;
3613;SDS011;1821;50.936;6.854;2023-03-01T04:08:42;12.77;;;10.88;;
3613;SDS011;1821;50.936;6.854;2023-03-01T04:09:24;13.75;;;10.23;;
3613;SDS011;1821;50.936;6.854;2023-03-01T04:10:09;13.77;;;10.30;;
3613;SDS011;1821;50.936;6.854;2023-03-01T04:10:58;14.13;;;10.07;;
3613;SDS011;1821;50.936;6.854;2023-03-01T04:12:01;12.32;;;10.38;;
3613;SDS011;1821;50.936;6.854;2023-03-01T04:12:43;14.32;;;10.38;;
3613;SDS011;1821;50.936;6.854;2023-03-01T04:13:26;12.20;;;10.30;;
3613;SDS011;1821;50.936;6.854;2023-03-01T04:14:08;11.32;;;9.45;;
3613;SDS011;1821;50.936;6.854;2023-03-01T04:14:53;12.68;;;10.50;;
3613;SDS011;1821;50.936;6.854;2023-03-01T04:15:35;12.57;;;10.30;;
3613;SDS011;1821;50.936;6.854;2023-03-01T04:16:18;11.65;;;9.55;;
3613;SDS011;1821;50.936;6.854;2023-03-01T04:17:01;13.88;;;10.18;;
3613;SDS011;1821;50.936;6.854;2023-03-01T04:17:46;12.85;;;10.43;;
3613;SDS011;1821;50.936;6.854;2023-03-01T04:18:28;12.50;;;9.95;;
3613;SDS011;1821;50.936;6.854;2023-03-01T04:19:10;16.08;;;10.70;;
3613;SDS011;1821;50.936;6.854;2023-03-01T04:19:52;15.10;;;11.00;;
3613;SDS011;1821;50.936;6.854;2023-03-01T04:20:35;13.35;;;10.45;;
3613;SDS011;1821;50.936;6.854;2023-03-01T04:21:17;13.30;;;10.60;;
3613;SDS011;1821;50.936;6.854;2023-03-01T04:22:03;11.32;;;9.88;;
3613;SDS011;1821;50.936;6.854;2023-03-01T04:23:54;13.60;;;10.32;;
3613;SDS011;1821;50.936;6.854;2023-03-01T04:24:38;12.90;;;10.77;;
3613;SDS011;1821;50.936;6.854;2023-03-01T04:25:20;11.32;;;9.57;;
3613;SDS011;1821;50.936;6.854;2023-03-01T04:26:02;11.70;;;9.63;;
3613;SDS011;1821;50.936;6.854;2023-03-01T04:26:44;13.48;;;10.27;;
3613;SDS011;1821;50.936;6.854;2023-03-01T04:27:26;13.07;;;10.13;;
3613;SDS011;1821;50.936;6.854;2023-03-01T04:28:09;13.93;;;10.40;;
3613;SDS011;1821;50.936;6.854;2023-03-01T04:28:53;12.88;;;10.27;;
3613;SDS011;1821;50.936;6.854;2023-03-01T04:29:35;12.13;;;10.27;;
3613;SDS011;1821;50.936;6.854;2023-03-01T04:30:18;14.18;;;10.25;;
3613;SDS011;1821;50.936;6.854;2023-03-01T04:31:02;14.10;;;10.15;;
3613;SDS011;1821;50.936;6.854;2023-03-01T04:31:55;15.80;;;10.55;;
3613;SDS011;1821;50.936;6.854;2023-03-01T04:32:36;12.93;;;10.20;;
3613;SDS011;1821;50.936;6.854;2023-03-01T04:33:18;11.95;;;9.65;;
3613;SDS011;1821;50.936;6.854;2023-03-01T04:34:03;14.05;;;10.27;;
3613;SDS011;1821;50.936;6.854;2023-03-01T04:34:45;13.23;;;10.30;;
3613;SDS011;1821;50.936;6.854;2023-03-01T04:35:29;12.15;;;9.95;;
3613;SDS011;1821;50.936;6.854;2023-03-01T04:36:13;11.63;;;9.90;;
3613;SDS011;1821;50.936;6.854;2023-03-01T04:36:58;15.43;;;10.65;;